Time;durP1;ratioP1;P1;durP2;ratioP2;P2;SDS_P1;SDS_P2;PMS_P1;PMS_P2;Temp;Humidity;BMP_temperature;BMP_pressure;BME280_temperature;BME280_humidity;BME280_pressure;Samples;Min_cycle;Max_cycle;Signal;HPM_P1;HPM_P2
2023/05/29 00:00:22;;;;;;;10.73;6.32;;;19.10;60.40;;;;;;5057628;28;20442;-62
2023/05/29 00:02:50;;;;;;;10.02;5.72;;;19.10;60.50;;;;;;5057560;28;20449;-62
2023/05/29 00:05:17;;;;;;;10.55;5.43;;;19.10;60.70;;;;;;5057380;28;20028;-63
2023/05/29 00:07:43;;;;;;;11.55;6.22;;;19.10;60.80;;;;;;5057490;28;20053;-62
2023/05/29 00:10:11;;;;;;;10.52;5.88;;;19.00;60.90;;;;;;5057384;28;20027;-62
2023/05/29 00:12:38;;;;;;;10.55;6.07;;;19.00;61.30;;;;;;5057417;28;20025;-62
2023/05/29 00:15:05;;;;;;;11.02;6.35;;;19.00;61.50;;;;;;5057929;28;20441;-62
2023/05/29 00:17:34;;;;;;;9.60;5.95;;;18.90;61.30;;;;;;5057260;28;20066;-62
2023/05/29 00:20:01;;;;;;;10.48;6.22;;;18.90;61.50;;;;;;5057781;28;20350;-62
2023/05/29 00:22:27;;;;;;;11.27;5.85;;;18.90;61.80;;;;;;5057490;28;20025;-62
2023/05/29 00:24:53;;;;;;;9.02;5.18;;;18.90;61.70;;;;;;5057168;28;20104;-62
2023/05/29 00:27:19;;;;;;;9.35;5.18;;;18.90;61.70;;;;;;5056966;28;20075;-62
2023/05/29 00:29:45;;;;;;;10.95;5.18;;;18.80;61.70;;;;;;5056998;28;20068;-62
2023/05/29 00:32:11;;;;;;;9.68;5.90;;;18.80;61.80;;;;;;5057549;28;20550;-62
2023/05/29 00:34:37;;;;;;;10.63;5.80;;;18.80;61.80;;;;;;5056997;28;20104;-62
2023/05/29 00:37:04;;;;;;;12.20;6.70;;;18.80;61.70;;;;;;5057618;28;20021;-62
2023/05/29 00:39:30;;;;;;;9.60;5.65;;;18.80;61.60;;;;;;5057162;28;20028;-62
2023/05/29 00:41:56;;;;;;;8.90;5.30;;;18.80;61.90;;;;;;5057069;28;20032;-63
2023/05/29 00:44:23;;;;;;;11.48;6.40;;;18.70;61.90;;;;;;5056839;28;20033;-63
2023/05/29 00:46:56;;;;;;;10.15;6.18;;;18.70;62.10;;;;;;5056731;28;20071;-63
2023/05/29 00:49:23;;;;;;;10.65;5.80;;;18.70;62.00;;;;;;5056626;28;20446;-62
2023/05/29 00:51:51;;;;;;;12.80;6.40;;;18.60;61.90;;;;;;5056020;28;20082;-61
2023/05/29 00:54:21;;;;;;;10.52;5.90;;;18.70;62.10;;;;;;5057158;28;20025;-62
2023/05/29 00:56:47;;;;;;;12.43;6.35;;;18.60;62.10;;;;;;5056488;28;20013;-62
2023/05/29 00:59:14;;;;;;;12.23;6.75;;;18.60;61.90;;;;;;5056993;28;20029;-62
2023/05/29 01:01:40;;;;;;;11.25;6.72;;;18.60;62.00;;;;;;5057049;28;20096;-62
2023/05/29 01:04:07;;;;;;;11.68;6.35;;;18.60;61.90;;;;;;5056359;28;20078;-62
2023/05/29 01:06:33;;;;;;;10.48;6.70;;;18.60;62.30;;;;;;5055738;28;20021;-63
2023/05/29 01:08:59;;;;;;;10.20;5.97;;;18.60;62.10;;;;;;5056216;28;20037;-63
2023/05/29 01:11:25;;;;;;;13.43;6.45;;;18.50;62.30;;;;;;5056532;28;20104;-63
2023/05/29 01:13:54;;;;;;;12.00;6.43;;;18.60;62.00;;;;;;5055214;28;20441;-62
2023/05/29 01:16:30;;;;;;;12.00;6.63;;;18.50;61.90;;;;;;5056147;28;20024;-62
2023/05/29 01:19:24;;;;;;;11.40;6.28;;;18.50;62.00;;;;;;5056670;28;20055;-62
2023/05/29 01:22:08;;;;;;;11.05;5.72;;;18.50;61.80;;;;;;5056443;28;20024;-63
2023/05/29 01:25:14;;;;;;;11.35;6.18;;;18.50;61.70;;;;;;5055958;28;20417;-63
2023/05/29 01:27:41;;;;;;;10.80;6.18;;;18.50;62.60;;;;;;5055714;28;20053;-62
2023/05/29 01:30:09;;;;;;;10.50;5.75;;;18.50;61.80;;;;;;5056400;28;20391;-62
2023/05/29 01:32:35;;;;;;;13.45;7.30;;;18.40;62.00;;;;;;5055873;28;20095;-63
2023/05/29 01:35:01;;;;;;;13.18;7.53;;;18.40;62.20;;;;;;5055874;28;20100;-63
2023/05/29 01:37:27;;;;;;;13.38;7.65;;;18.40;62.20;;;;;;5055709;28;20489;-62
2023/05/29 01:39:54;;;;;;;12.23;6.25;;;18.40;62.00;;;;;;5055737;28;20358;-63
2023/05/29 01:42:20;;;;;;;10.77;6.10;;;18.40;62.00;;;;;;5055726;28;20025;-63
2023/05/29 01:44:47;;;;;;;10.73;6.10;;;18.40;61.80;;;;;;5056241;28;20032;-63
2023/05/29 01:47:13;;;;;;;10.18;6.00;;;18.40;62.20;;;;;;5056044;28;20040;-62
2023/05/29 01:49:40;;;;;;;10.40;6.20;;;18.40;62.10;;;;;;5055569;28;20044;-63
2023/05/29 01:52:06;;;;;;;10.75;5.72;;;18.40;62.10;;;;;;5055826;28;20092;-63
2023/05/29 01:54:32;;;;;;;12.65;6.00;;;18.40;62.30;;;;;;5055808;28;20103;-63
2023/05/29 01:57:00;;;;;;;10.55;5.95;;;18.40;62.20;;;;;;5055642;28;20088;-62
2023/05/29 01:59:27;;;;;;;10.43;6.10;;;18.40;62.20;;;;;;5055701;28;20025;-61
2023/05/29 02:01:53;;;;;;;9.43;5.72;;;18.40;62.20;;;;;;5055896;28;20025;-62
2023/05/29 02:04:19;;;;;;;10.70;6.00;;;18.40;62.50;;;;;;5055654;28;20028;-62
2023/05/29 02:06:45;;;;;;;10.73;6.65;;;18.40;62.50;;;;;;5055273;28;20095;-62
2023/05/29 02:09:11;;;;;;;11.05;5.75;;;18.40;62.80;;;;;;5055228;28;20112;-62
2023/05/29 02:11:37;;;;;;;10.80;6.45;;;18.30;62.60;;;;;;5055183;28;20035;-63
2023/05/29 02:14:04;;;;;;;10.48;6.18;;;18.40;63.10;;;;;;5055494;28;20033;-61
2023/05/29 02:16:33;;;;;;;12.25;5.80;;;18.30;63.20;;;;;;5055044;28;20028;-62
2023/05/29 02:19:01;;;;;;;12.32;6.38;;;18.30;63.10;;;;;;5054705;28;20021;-61
2023/05/29 02:21:27;;;;;;;11.45;6.40;;;18.30;63.40;;;;;;5055057;28;20030;-61
2023/05/29 02:23:53;;;;;;;10.70;6.47;;;18.30;63.50;;;;;;5055071;28;20040;-62
2023/05/29 02:26:19;;;;;;;10.95;5.90;;;18.30;64.10;;;;;;5055009;28;20056;-62
2023/05/29 02:28:45;;;;;;;9.57;6.13;;;18.30;63.30;;;;;;5055503;28;20121;-62
2023/05/29 02:31:11;;;;;;;10.25;6.32;;;18.30;63.80;;;;;;5054909;28;20037;-62
2023/05/29 02:33:37;;;;;;;12.27;6.78;;;18.30;64.00;;;;;;5055481;28;20025;-62
2023/05/29 02:36:03;;;;;;;10.70;6.35;;;18.30;64.10;;;;;;5054874;28;20087;-61
2023/05/29 02:38:29;;;;;;;11.52;6.43;;;18.30;63.80;;;;;;5054902;28;20442;-62
2023/05/29 02:40:55;;;;;;;10.77;6.45;;;18.40;64.00;;;;;;5054849;28;20369;-62
2023/05/29 02:43:23;;;;;;;9.50;5.85;;;18.40;63.90;;;;;;5054880;28;20035;-62
2023/05/29 02:45:49;;;;;;;11.55;6.25;;;18.40;63.70;;;;;;5054873;28;20021;-62
2023/05/29 02:48:15;;;;;;;9.93;5.75;;;18.40;63.70;;;;;;5054782;28;20035;-62
2023/05/29 02:50:41;;;;;;;11.63;6.32;;;18.40;63.70;;;;;;5054745;28;20018;-62
2023/05/29 02:53:07;;;;;;;11.57;5.90;;;18.40;63.70;;;;;;5055245;28;20029;-62
2023/05/29 02:55:35;;;;;;;13.02;6.55;;;18.40;63.50;;;;;;5055206;28;20334;-62
2023/05/29 02:58:02;;;;;;;9.68;5.57;;;18.40;63.30;;;;;;5054796;28;20017;-62
2023/05/29 03:00:28;;;;;;;12.68;6.32;;;18.40;63.60;;;;;;5053899;28;20018;-62
2023/05/29 03:02:55;;;;;;;10.73;6.45;;;18.40;63.70;;;;;;5054978;28;20040;-63
2023/05/29 03:05:21;;;;;;;10.32;5.78;;;18.40;63.40;;;;;;5054558;28;20036;-62
2023/05/29 03:07:46;;;;;;;10.05;6.00;;;18.40;63.50;;;;;;5054639;28;20029;-63
2023/05/29 03:10:17;;;;;;;10.38;6.22;;;18.40;63.50;;;;;;5054542;28;20091;-63
2023/05/29 03:12:44;;;;;;;12.07;6.65;;;18.40;63.30;;;;;;5055123;28;20091;-62
2023/05/29 03:15:10;;;;;;;10.68;6.05;;;18.40;63.70;;;;;;5054509;28;20104;-63
2023/05/29 03:17:38;;;;;;;10.30;6.18;;;18.40;63.60;;;;;;5054591;28;20065;-63
2023/05/29 03:20:08;;;;;;;11.38;6.10;;;18.40;63.60;;;;;;5054497;28;20338;-62
2023/05/29 03:22:35;;;;;;;10.02;5.50;;;18.40;63.70;;;;;;5054547;28;20450;-63
2023/05/29 03:25:02;;;;;;;9.95;6.32;;;18.40;63.40;;;;;;5055025;28;20029;-62
2023/05/29 03:27:29;;;;;;;8.68;5.30;;;18.40;63.50;;;;;;5055102;28;20389;-63
2023/05/29 03:29:55;;;;;;;11.57;6.95;;;18.40;63.40;;;;;;5056119;28;20060;-62
2023/05/29 03:32:21;;;;;;;11.73;6.30;;;18.40;64.10;;;;;;5059733;28;20457;-62
2023/05/29 03:34:48;;;;;;;11.48;6.68;;;18.40;63.80;;;;;;5058750;28;20040;-62
2023/05/29 03:37:14;;;;;;;9.25;5.60;;;18.40;64.00;;;;;;5057959;28;20039;-62
2023/05/29 03:39:40;;;;;;;10.63;6.10;;;18.40;63.70;;;;;;5058064;28;20029;-62
2023/05/29 03:42:06;;;;;;;12.10;5.85;;;18.40;63.70;;;;;;5057973;28;20029;-62
2023/05/29 03:44:32;;;;;;;12.13;6.40;;;18.40;63.50;;;;;;5058183;28;20025;-62
2023/05/29 03:46:58;;;;;;;12.15;6.10;;;18.40;63.80;;;;;;5057875;28;20036;-62
2023/05/29 03:49:24;;;;;;;10.77;6.00;;;18.40;63.40;;;;;;5057719;28;20025;-62
2023/05/29 03:51:50;;;;;;;12.82;6.35;;;18.40;63.30;;;;;;5057810;28;20036;-62
2023/05/29 03:54:17;;;;;;;10.90;5.80;;;18.50;63.60;;;;;;5057804;28;20021;-63
2023/05/29 03:56:43;;;;;;;12.45;5.95;;;18.50;63.30;;;;;;5057651;28;20425;-63
2023/05/29 03:59:08;;;;;;;10.63;5.97;;;18.50;63.20;;;;;;5057915;28;20140;-63
2023/05/29 04:01:35;;;;;;;10.68;6.13;;;18.50;63.40;;;;;;5057629;28;20335;-62
2023/05/29 04:04:00;;;;;;;11.45;5.82;;;18.60;63.30;;;;;;5057847;28;20418;-63
2023/05/29 04:06:27;;;;;;;11.63;6.32;;;18.60;63.00;;;;;;5057741;28;20044;-63
2023/05/29 04:08:52;;;;;;;10.55;6.47;;;18.70;63.00;;;;;;5057371;28;20090;-63
2023/05/29 04:11:20;;;;;;;11.60;5.95;;;18.70;63.00;;;;;;5057443;28;20025;-63
2023/05/29 04:13:47;;;;;;;11.80;5.97;;;18.70;62.70;;;;;;5057346;28;20446;-62
2023/05/29 04:16:14;;;;;;;8.60;5.50;;;18.80;62.80;;;;;;5057529;28;20031;-63
2023/05/29 04:18:40;;;;;;;12.55;5.68;;;18.80;62.60;;;;;;5057634;28;20025;-62
2023/05/29 04:21:06;;;;;;;9.73;5.30;;;18.90;62.60;;;;;;5056693;28;20183;-62
2023/05/29 04:23:32;;;;;;;10.10;5.65;;;18.90;62.40;;;;;;5057206;28;20037;-63
2023/05/29 04:26:00;;;;;;;10.45;6.00;;;19.00;62.20;;;;;;5057102;28;20021;-62
2023/05/29 04:28:27;;;;;;;8.05;5.13;;;19.10;62.00;;;;;;5056890;28;20053;-62
2023/05/29 04:30:55;;;;;;;9.77;5.68;;;19.20;62.00;;;;;;5057227;28;20025;-63
2023/05/29 04:33:23;;;;;;;10.25;6.15;;;19.30;61.80;;;;;;5057546;28;20021;-62
2023/05/29 04:35:49;;;;;;;11.00;6.78;;;19.40;61.50;;;;;;5056733;28;20492;-62
2023/05/29 04:38:15;;;;;;;10.07;5.63;;;19.50;61.30;;;;;;5057448;28;20029;-62
2023/05/29 04:40:44;;;;;;;9.98;5.90;;;19.60;61.20;;;;;;5057206;28;20040;-62
2023/05/29 04:43:10;;;;;;;11.55;5.60;;;19.70;61.20;;;;;;5056127;28;20442;-63
2023/05/29 04:45:36;;;;;;;9.25;5.20;;;19.70;61.00;;;;;;5056775;28;20025;-62
2023/05/29 04:48:04;;;;;;;9.70;5.18;;;19.80;61.00;;;;;;5056699;28;20037;-60
2023/05/29 04:50:31;;;;;;;10.68;5.47;;;19.90;60.80;;;;;;5056890;28;20064;-62
2023/05/29 04:52:57;;;;;;;8.93;5.05;;;20.00;60.70;;;;;;5056624;28;20029;-62
2023/05/29 04:55:23;;;;;;;11.32;6.40;;;20.20;60.60;;;;;;5056507;28;20025;-63
2023/05/29 04:57:49;;;;;;;12.30;6.38;;;20.50;60.20;;;;;;5056526;28;20119;-62
2023/05/29 05:00:17;;;;;;;8.63;5.00;;;21.10;59.90;;;;;;5055590;28;20025;-62
2023/05/29 05:02:44;;;;;;;9.40;5.18;;;21.80;59.10;;;;;;5056424;28;20048;-62
2023/05/29 05:05:10;;;;;;;8.90;5.32;;;22.60;57.60;;;;;;5056762;28;20040;-62
2023/05/29 05:07:36;;;;;;;9.15;5.43;;;23.50;56.00;;;;;;5056639;28;20021;-62
2023/05/29 05:10:03;;;;;;;8.38;5.38;;;24.20;54.70;;;;;;5056846;28;20162;-62
2023/05/29 05:12:29;;;;;;;7.70;4.90;;;24.90;53.10;;;;;;5056344;28;20028;-62
2023/05/29 05:14:55;;;;;;;8.98;5.53;;;25.50;51.80;;;;;;5056502;28;20426;-62
2023/05/29 05:17:21;;;;;;;8.23;5.28;;;26.10;50.20;;;;;;5056141;28;20028;-62
2023/05/29 05:19:49;;;;;;;9.80;5.53;;;26.70;49.70;;;;;;5056409;28;20036;-62
2023/05/29 05:22:16;;;;;;;10.18;5.65;;;27.40;48.60;;;;;;5056329;28;20055;-62
2023/05/29 05:24:42;;;;;;;8.82;4.95;;;28.00;47.10;;;;;;5055981;28;20044;-63
2023/05/29 05:27:08;;;;;;;8.73;5.53;;;28.60;45.80;;;;;;5055703;28;20478;-63
2023/05/29 05:29:34;;;;;;;7.82;4.60;;;29.20;45.10;;;;;;5055889;28;20079;-62
2023/05/29 05:32:00;;;;;;;8.45;5.22;;;29.80;44.60;;;;;;5056373;28;20434;-63
2023/05/29 05:34:26;;;;;;;9.10;5.25;;;30.40;43.50;;;;;;5055779;28;20357;-63
2023/05/29 05:36:52;;;;;;;8.23;4.90;;;31.00;43.00;;;;;;5056296;28;20021;-63
2023/05/29 05:39:18;;;;;;;9.18;5.18;;;31.70;42.00;;;;;;5055939;28;20378;-62
2023/05/29 05:41:44;;;;;;;8.25;5.00;;;32.30;41.20;;;;;;5055955;28;20040;-63
2023/05/29 05:44:10;;;;;;;7.53;4.55;;;32.90;39.90;;;;;;5055618;28;20056;-63
2023/05/29 05:46:36;;;;;;;8.10;5.20;;;33.30;39.20;;;;;;5054722;28;20021;-64
2023/05/29 05:49:02;;;;;;;9.00;5.05;;;33.60;38.10;;;;;;5055687;28;20079;-63
2023/05/29 05:51:28;;;;;;;8.63;5.47;;;34.00;37.60;;;;;;5056032;28;20099;-64
2023/05/29 05:53:54;;;;;;;6.50;4.20;;;34.30;37.00;;;;;;5055236;28;20049;-63
2023/05/29 05:56:21;;;;;;;8.85;5.03;;;34.60;36.60;;;;;;5054256;28;20017;-65
2023/05/29 05:58:48;;;;;;;5.97;4.63;;;34.90;36.40;;;;;;5054339;28;20025;-64
2023/05/29 06:01:14;;;;;;;8.52;5.43;;;35.40;35.90;;;;;;5054108;28;20292;-63
2023/05/29 06:03:40;;;;;;;7.30;5.05;;;35.90;35.20;;;;;;5055241;28;20394;-64
2023/05/29 06:06:08;;;;;;;7.90;4.65;;;36.40;34.70;;;;;;5055222;28;20040;-64
2023/05/29 06:08:34;;;;;;;8.40;5.22;;;36.60;33.80;;;;;;5055181;28;20498;-64
2023/05/29 06:11:00;;;;;;;10.15;5.43;;;36.90;33.10;;;;;;5055192;28;20048;-64
2023/05/29 06:13:26;;;;;;;7.55;5.10;;;37.10;32.70;;;;;;5055106;28;20025;-64
2023/05/29 06:15:52;;;;;;;7.88;4.90;;;37.50;32.70;;;;;;5055107;28;20075;-65
2023/05/29 06:18:17;;;;;;;8.13;5.60;;;37.90;32.00;;;;;;5055083;28;20029;-63
2023/05/29 06:20:44;;;;;;;7.65;4.90;;;38.40;31.50;;;;;;5055533;28;20024;-63
2023/05/29 06:23:10;;;;;;;8.27;4.97;;;38.80;30.70;;;;;;5054997;28;20033;-62
2023/05/29 06:25:36;;;;;;;8.93;4.93;;;39.20;30.50;;;;;;5054944;28;20395;-63
2023/05/29 06:28:02;;;;;;;8.85;5.00;;;39.60;29.80;;;;;;5054902;28;20057;-63
2023/05/29 06:30:29;;;;;;;7.13;4.50;;;39.90;29.30;;;;;;5054995;28;20117;-64
2023/05/29 06:32:55;;;;;;;10.57;4.80;;;40.30;28.90;;;;;;5055226;28;20025;-64
2023/05/29 06:35:21;;;;;;;9.05;4.80;;;40.80;28.40;;;;;;5055141;28;20033;-64
2023/05/29 06:37:47;;;;;;;7.05;4.95;;;41.10;27.70;;;;;;5054930;28;20032;-64
2023/05/29 06:40:15;;;;;;;7.28;4.85;;;41.20;27.10;;;;;;5055121;28;20032;-64
2023/05/29 06:42:44;;;;;;;7.97;5.07;;;40.90;27.10;;;;;;5055172;28;20029;-64
2023/05/29 06:45:13;;;;;;;10.13;5.72;;;40.20;26.70;;;;;;5053893;28;20027;-63
2023/05/29 06:47:40;;;;;;;7.55;4.60;;;39.10;27.90;;;;;;5055125;28;20075;-64
2023/05/29 06:50:07;;;;;;;8.27;5.18;;;37.90;29.20;;;;;;5054585;28;20074;-64
2023/05/29 06:52:33;;;;;;;6.80;5.00;;;36.80;30.30;;;;;;5051711;28;20086;-64
2023/05/29 06:54:59;;;;;;;7.90;5.22;;;35.90;31.40;;;;;;5055123;28;20025;-63
2023/05/29 06:57:25;;;;;;;8.10;5.30;;;35.10;32.30;;;;;;5054468;28;20033;-63
2023/05/29 06:59:51;;;;;;;7.65;4.85;;;34.40;33.10;;;;;;5054633;28;20021;-63
2023/05/29 07:02:17;;;;;;;7.90;5.13;;;33.90;33.90;;;;;;5054655;28;20032;-64
2023/05/29 07:04:42;;;;;;;7.00;4.97;;;33.40;34.10;;;;;;5055543;28;20427;-64
2023/05/29 07:07:08;;;;;;;8.10;4.78;;;33.00;34.60;;;;;;5058396;28;20033;-64
2023/05/29 07:09:34;;;;;;;8.98;5.47;;;32.70;35.20;;;;;;5058319;28;20029;-64
2023/05/29 07:12:00;;;;;;;8.35;4.43;;;32.40;35.50;;;;;;5058365;28;20025;-64
2023/05/29 07:14:26;;;;;;;7.18;4.90;;;32.30;35.70;;;;;;5057814;28;20014;-63
2023/05/29 07:16:52;;;;;;;7.40;4.82;;;32.20;35.90;;;;;;5047244;28;20026;-64
2023/05/29 07:19:18;;;;;;;8.05;5.50;;;32.10;36.10;;;;;;5039858;28;20033;-64
2023/05/29 07:21:48;;;;;;;7.43;5.18;;;32.10;36.30;;;;;;5038591;28;20017;-63
2023/05/29 07:24:14;;;;;;;8.75;5.05;;;32.00;36.30;;;;;;5042936;28;20164;-62
2023/05/29 07:26:39;;;;;;;11.85;4.88;;;31.90;36.50;;;;;;5038730;28;20033;-63
2023/05/29 07:29:05;;;;;;;10.68;5.90;;;31.90;36.50;;;;;;5038318;28;20040;-65
2023/05/29 07:31:31;;;;;;;11.40;5.97;;;31.70;36.00;;;;;;5038152;28;20036;-63
2023/05/29 07:33:57;;;;;;;8.77;5.30;;;31.30;36.50;;;;;;5038138;28;20049;-62
2023/05/29 07:36:23;;;;;;;8.27;5.78;;;31.10;36.80;;;;;;5038223;28;20064;-63
2023/05/29 07:38:49;;;;;;;9.60;6.00;;;31.00;36.80;;;;;;5055752;28;20100;-64
2023/05/29 07:41:17;;;;;;;11.07;5.70;;;30.90;36.90;;;;;;5039931;28;20033;-63
2023/05/29 07:43:45;;;;;;;10.05;5.68;;;30.90;37.20;;;;;;5035880;28;20029;-63
2023/05/29 07:46:11;;;;;;;9.98;5.50;;;30.80;37.30;;;;;;5035599;28;20116;-63
2023/05/29 07:48:37;;;;;;;8.70;5.38;;;30.80;37.00;;;;;;5035809;28;20075;-61
2023/05/29 07:51:03;;;;;;;9.52;6.38;;;30.60;37.30;;;;;;5035526;28;20040;-64
2023/05/29 07:53:28;;;;;;;12.30;6.07;;;30.50;37.30;;;;;;5035575;28;20021;-63
2023/05/29 07:55:54;;;;;;;11.30;5.82;;;30.30;37.50;;;;;;5035624;28;20049;-63
2023/05/29 07:58:21;;;;;;;11.75;6.57;;;30.10;37.80;;;;;;5037919;28;20037;-63
2023/05/29 08:00:47;;;;;;;9.15;6.43;;;30.10;38.10;;;;;;5037169;28;20029;-64
2023/05/29 08:03:12;;;;;;;11.90;6.75;;;29.90;38.30;;;;;;5036924;28;20040;-63
2023/05/29 08:05:38;;;;;;;11.07;6.90;;;29.90;38.20;;;;;;5037692;28;20368;-63
2023/05/29 08:08:04;;;;;;;9.50;5.43;;;29.70;38.80;;;;;;5037471;28;20017;-64
2023/05/29 08:10:30;;;;;;;10.20;6.45;;;29.70;39.10;;;;;;5037918;28;20029;-63
2023/05/29 08:12:56;;;;;;;9.38;6.05;;;29.70;38.70;;;;;;5037673;28;20109;-64
2023/05/29 08:15:24;;;;;;;9.93;5.35;;;29.60;39.00;;;;;;5037531;28;20318;-63
2023/05/29 08:17:52;;;;;;;8.55;4.97;;;29.60;38.80;;;;;;5036405;28;20084;-63
2023/05/29 08:20:18;;;;;;;7.53;4.90;;;29.70;37.10;;;;;;5037405;28;20026;-64
2023/05/29 08:22:44;;;;;;;9.00;5.18;;;29.60;37.20;;;;;;5037570;28;20040;-64
2023/05/29 08:25:10;;;;;;;10.60;5.55;;;29.50;36.40;;;;;;5037319;28;20328;-63
2023/05/29 08:27:36;;;;;;;8.25;5.22;;;29.50;36.90;;;;;;5037141;28;20489;-63
2023/05/29 08:30:03;;;;;;;8.85;5.10;;;29.50;36.80;;;;;;5037361;28;20092;-63
2023/05/29 08:32:29;;;;;;;9.23;4.93;;;29.60;36.20;;;;;;5037100;28;20439;-64
2023/05/29 08:34:56;;;;;;;11.30;5.43;;;29.40;36.50;;;;;;5037078;28;20332;-64
2023/05/29 08:37:22;;;;;;;10.02;5.65;;;29.20;37.00;;;;;;5036940;28;20025;-63
2023/05/29 08:39:48;;;;;;;10.13;5.53;;;29.10;37.40;;;;;;5037532;28;20026;-64
2023/05/29 08:42:26;;;;;;;8.60;5.20;;;29.00;37.70;;;;;;5036865;28;20029;-64
2023/05/29 08:44:59;;;;;;;9.38;5.68;;;28.90;37.90;;;;;;5037459;28;20029;-63
2023/05/29 08:47:26;;;;;;;;;;;29.00;38.10;;;;;;5037277;28;20037;-63
2023/05/29 08:49:53;;;;;;;8.60;5.25;;;28.90;38.00;;;;;;5037045;28;19909;-64
2023/05/29 08:52:25;;;;;;;8.90;5.47;;;28.90;38.40;;;;;;5037017;28;20093;-64
2023/05/29 08:54:52;;;;;;;11.63;5.78;;;28.90;38.40;;;;;;5035766;28;20332;-64
2023/05/29 08:57:18;;;;;;;10.05;5.70;;;28.90;38.00;;;;;;5036898;28;20033;-63
2023/05/29 08:59:45;;;;;;;7.97;5.65;;;28.90;38.00;;;;;;5036475;28;20094;-63
2023/05/29 09:02:11;;;;;;;8.45;5.38;;;28.90;37.60;;;;;;5036613;28;20025;-64
2023/05/29 09:04:39;;;;;;;10.48;5.60;;;28.90;37.10;;;;;;5036508;28;20125;-63
2023/05/29 09:07:08;;;;;;;10.00;5.25;;;28.90;37.00;;;;;;5036474;28;20025;-63
2023/05/29 09:09:34;;;;;;;8.35;5.03;;;28.80;37.30;;;;;;5036240;28;20044;-63
2023/05/29 09:12:02;;;;;;;10.82;5.72;;;28.80;37.50;;;;;;5036668;28;20021;-63
2023/05/29 09:14:36;;;;;;;9.40;5.18;;;28.80;37.60;;;;;;5036337;28;20104;-64
2023/05/29 09:17:03;;;;;;;8.52;4.68;;;28.80;37.40;;;;;;5036256;28;20032;-63
2023/05/29 09:19:30;;;;;;;9.95;5.70;;;28.90;37.80;;;;;;5035227;28;20029;-64
2023/05/29 09:22:07;;;;;;;9.38;5.38;;;29.10;37.90;;;;;;5036157;28;20064;-64
2023/05/29 09:24:36;;;;;;;10.23;5.82;;;29.10;37.20;;;;;;5036455;28;20094;-63
2023/05/29 09:27:04;;;;;;;11.07;5.22;;;29.10;37.70;;;;;;5035634;28;20375;-64
2023/05/29 09:29:42;;;;;;;9.80;5.90;;;28.90;37.60;;;;;;5035972;28;20071;-64
2023/05/29 09:32:12;;;;;;;8.38;5.50;;;28.90;37.90;;;;;;5035916;28;20057;-63
2023/05/29 09:34:39;;;;;;;8.45;5.10;;;28.80;37.40;;;;;;5035939;28;20021;-64
2023/05/29 09:37:09;;;;;;;9.90;5.15;;;28.80;37.80;;;;;;5035766;28;20049;-64
2023/05/29 09:39:55;;;;;;;10.40;5.28;;;28.80;38.20;;;;;;5034876;28;20022;-64
2023/05/29 09:42:21;;;;;;;8.00;5.10;;;29.00;37.60;;;;;;5035661;28;20163;-63
2023/05/29 09:44:51;;;;;;;8.00;4.90;;;29.00;37.70;;;;;;5035730;28;20123;-63
2023/05/29 09:47:18;;;;;;;9.50;4.72;;;29.10;38.00;;;;;;5035885;28;20057;-63
2023/05/29 09:49:48;;;;;;;8.90;5.10;;;29.20;38.00;;;;;;5035613;28;20029;-64
2023/05/29 09:52:15;;;;;;;8.85;5.13;;;29.30;37.40;;;;;;5035637;28;20021;-63
2023/05/29 09:54:47;;;;;;;7.55;5.30;;;29.30;37.00;;;;;;5035593;28;20350;-63
2023/05/29 09:57:17;;;;;;;10.68;5.88;;;29.10;36.70;;;;;;5035489;28;20481;-63
2023/05/29 09:59:51;;;;;;;10.13;6.07;;;28.90;36.60;;;;;;5035783;28;20036;-64
2023/05/29 10:02:18;;;;;;;10.32;5.38;;;28.90;37.00;;;;;;5035467;28;20084;-64
2023/05/29 10:04:44;;;;;;;9.07;5.38;;;28.90;37.30;;;;;;5034497;28;20466;-64
2023/05/29 10:07:16;;;;;;;9.00;5.93;;;28.90;37.60;;;;;;5035554;28;20109;-64
2023/05/29 10:09:48;;;;;;;8.85;5.60;;;29.00;37.60;;;;;;5035812;28;20039;-64
2023/05/29 10:12:20;;;;;;;8.93;5.35;;;29.00;37.00;;;;;;5034732;28;20029;-63
2023/05/29 10:14:49;;;;;;;7.10;4.95;;;28.90;36.70;;;;;;5035626;28;20017;-64
2023/05/29 10:17:21;;;;;;;7.07;4.68;;;28.90;36.80;;;;;;5035173;28;20444;-64
2023/05/29 10:19:49;;;;;;;8.43;4.85;;;28.90;36.60;;;;;;5035537;28;20025;-63
2023/05/29 10:22:19;;;;;;;10.45;5.32;;;29.00;37.00;;;;;;5035447;28;20037;-64
2023/05/29 10:24:48;;;;;;;7.40;4.90;;;29.10;37.10;;;;;;5035110;28;20037;-64
2023/05/29 10:27:15;;;;;;;8.07;5.18;;;29.10;36.70;;;;;;5034916;28;20056;-64
2023/05/29 10:30:00;;;;;;;9.07;5.45;;;29.10;36.70;;;;;;5034391;28;20021;-63
2023/05/29 10:33:03;;;;;;;9.60;5.43;;;29.10;36.40;;;;;;5035636;28;20088;-63
2023/05/29 10:36:01;;;;;;;7.90;5.03;;;29.10;36.00;;;;;;5034510;28;20029;-63
2023/05/29 10:38:27;;;;;;;8.70;5.10;;;29.00;36.00;;;;;;5033790;28;20121;-64
2023/05/29 10:40:53;;;;;;;9.60;4.90;;;29.00;36.30;;;;;;5033557;28;20473;-64
2023/05/29 10:43:33;;;;;;;9.20;5.78;;;29.10;36.70;;;;;;5034361;28;20071;-64
2023/05/29 10:46:00;;;;;;;11.77;5.50;;;29.00;36.00;;;;;;5035426;28;20342;-64
2023/05/29 10:48:30;;;;;;;7.93;4.88;;;29.00;36.40;;;;;;5034363;28;20021;-64
2023/05/29 10:50:56;;;;;;;9.02;5.07;;;29.00;36.80;;;;;;5034802;28;20021;-64
2023/05/29 10:53:32;;;;;;;6.72;4.50;;;29.10;36.80;;;;;;5035113;28;20025;-64
2023/05/29 10:56:00;;;;;;;8.13;5.20;;;29.10;37.00;;;;;;5034977;28;20018;-64
2023/05/29 10:58:27;;;;;;;8.45;4.80;;;29.20;36.20;;;;;;5034757;28;20030;-64
2023/05/29 11:00:56;;;;;;;9.57;4.70;;;29.20;36.00;;;;;;5034786;28;20447;-64
2023/05/29 11:03:23;;;;;;;7.75;4.88;;;29.20;36.10;;;;;;5034743;28;20471;-64
2023/05/29 11:06:20;;;;;;;11.30;4.97;;;29.10;35.80;;;;;;5034755;28;20030;-64
2023/05/29 11:08:56;;;;;;;10.05;5.28;;;29.00;35.00;;;;;;5028542;28;20037;-64
2023/05/29 11:11:36;;;;;;;9.02;5.15;;;28.90;35.60;;;;;;5034870;28;20029;-64
2023/05/29 11:14:06;;;;;;;8.75;5.13;;;28.90;35.50;;;;;;5035019;28;20049;-63
2023/05/29 11:16:33;;;;;;;8.38;4.65;;;28.90;36.00;;;;;;5034573;28;20410;-64
2023/05/29 11:19:07;;;;;;;9.68;4.80;;;28.90;36.10;;;;;;5035144;28;20021;-64
2023/05/29 11:21:58;;;;;;;10.25;4.70;;;29.00;36.30;;;;;;5034921;28;20052;-64
2023/05/29 11:24:26;;;;;;;7.03;4.38;;;29.10;36.20;;;;;;5035141;28;20033;-63
2023/05/29 11:26:53;;;;;;;8.82;4.85;;;29.20;36.20;;;;;;5033893;28;20428;-64
2023/05/29 11:29:24;;;;;;;7.60;5.07;;;29.20;36.00;;;;;;5034749;28;20116;-64
2023/05/29 11:32:03;;;;;;;8.25;4.97;;;29.30;36.10;;;;;;5035044;28;20017;-63
2023/05/29 11:34:30;;;;;;;9.02;4.90;;;29.40;36.40;;;;;;5034809;28;20025;-63
2023/05/29 11:36:58;;;;;;;8.13;4.68;;;29.40;36.50;;;;;;5034372;28;20029;-63
2023/05/29 11:39:25;;;;;;;8.73;5.40;;;29.40;36.40;;;;;;5034438;28;20400;-64
2023/05/29 11:41:55;;;;;;;8.45;5.20;;;29.40;35.50;;;;;;5033495;28;20060;-64
2023/05/29 11:44:24;;;;;;;9.13;5.10;;;29.40;36.00;;;;;;5033825;28;20025;-63
2023/05/29 11:47:07;;;;;;;10.10;5.75;;;29.30;36.10;;;;;;5034601;28;20025;-64
2023/05/29 11:49:36;;;;;;;9.65;5.47;;;29.10;35.70;;;;;;5034782;28;20029;-64
2023/05/29 11:52:22;;;;;;;8.15;5.40;;;29.00;36.20;;;;;;5037149;28;20039;-64
2023/05/29 11:54:49;;;;;;;8.48;4.85;;;29.00;35.60;;;;;;5038117;28;20309;-63
2023/05/29 11:57:20;;;;;;;9.57;4.93;;;28.90;36.20;;;;;;5037754;28;20068;-64
2023/05/29 11:59:47;;;;;;;8.77;5.20;;;29.00;35.10;;;;;;5037681;28;20367;-63
2023/05/29 12:02:14;;;;;;;10.85;5.53;;;29.00;35.30;;;;;;5038250;28;20458;-63
2023/05/29 12:04:40;;;;;;;8.23;5.10;;;28.90;34.50;;;;;;5037635;28;20087;-63
2023/05/29 12:07:18;;;;;;;6.78;4.80;;;28.90;35.50;;;;;;5037853;28;20029;-64
2023/05/29 12:09:44;;;;;;;9.40;5.25;;;28.90;35.00;;;;;;5037760;28;20125;-64
2023/05/29 12:12:10;;;;;;;8.82;4.82;;;29.00;35.20;;;;;;5037553;28;20053;-63
2023/05/29 12:14:36;;;;;;;7.13;4.57;;;29.00;35.50;;;;;;5037523;28;20025;-64
2023/05/29 12:17:02;;;;;;;8.25;5.10;;;29.10;35.70;;;;;;5037939;28;20538;-63
2023/05/29 12:19:28;;;;;;;8.95;5.05;;;29.10;35.90;;;;;;5037875;28;20061;-64
2023/05/29 12:21:54;;;;;;;7.40;4.70;;;29.10;35.30;;;;;;5037851;28;20033;-63
2023/05/29 12:24:20;;;;;;;7.95;5.10;;;29.00;35.40;;;;;;5037467;28;20332;-63
2023/05/29 12:26:49;;;;;;;9.30;4.60;;;29.00;34.70;;;;;;5037413;28;20087;-64
2023/05/29 12:29:15;;;;;;;8.30;4.50;;;29.00;35.10;;;;;;5037152;28;20029;-64
2023/05/29 12:31:41;;;;;;;7.50;4.65;;;29.10;35.50;;;;;;5037435;28;20026;-64
2023/05/29 12:34:12;;;;;;;9.57;5.05;;;29.20;35.60;;;;;;5037687;28;20033;-63
2023/05/29 12:36:42;;;;;;;9.15;4.95;;;29.30;35.20;;;;;;5037013;28;20083;-63
2023/05/29 12:39:09;;;;;;;9.27;4.57;;;29.40;35.30;;;;;;5037328;28;20076;-64
2023/05/29 12:41:37;;;;;;;7.90;4.78;;;29.50;35.50;;;;;;5037227;28;20103;-63
2023/05/29 12:44:04;;;;;;;7.72;4.50;;;29.60;35.40;;;;;;5037484;28;20053;-64
2023/05/29 12:46:44;;;;;;;7.95;4.55;;;29.60;35.40;;;;;;5036863;28;20022;-64